Time;durP1;ratioP1;P1;durP2;ratioP2;P2;SDS_P1;SDS_P2;PMS_P1;PMS_P2;Temp;Humidity;BMP_temperature;BMP_pressure;BME280_temperature;BME280_humidity;BME280_pressure;Samples;Min_cycle;Max_cycle;Signal;HPM_P1;HPM_P2
2022/01/27 00:02:01;;;;;;;50.40;32.63;;;3.00;99.90;;;;;;5053466;28;20495;-68
2022/01/27 00:04:35;;;;;;;56.80;34.00;;;3.00;99.90;;;;;;5093709;28;20463;-69
2022/01/27 00:07:02;;;;;;;53.90;34.47;;;3.00;99.90;;;;;;5095401;28;20483;-68
2022/01/27 00:09:44;;;;;;;53.93;35.23;;;3.10;99.90;;;;;;5096465;28;20457;-68
2022/01/27 00:12:14;;;;;;;50.10;33.57;;;3.00;99.90;;;;;;5098166;28;20464;-68
2022/01/27 00:14:46;;;;;;;49.13;31.10;;;3.10;99.90;;;;;;5098689;28;20493;-71
2022/01/27 00:17:15;;;;;;;46.17;32.80;;;3.10;99.90;;;;;;5108525;28;20452;-70
2022/01/27 00:19:42;;;;;;;54.20;34.20;;;3.10;99.90;;;;;;5105852;28;20473;-71
2022/01/27 00:22:09;;;;;;;54.13;35.10;;;3.10;99.90;;;;;;5102625;28;20480;-70
2022/01/27 00:24:37;;;;;;;57.17;34.33;;;3.10;99.90;;;;;;5105295;28;21026;-68
2022/01/27 00:27:05;;;;;;;45.40;28.50;;;3.10;99.90;;;;;;5105068;28;20460;-68
2022/01/27 00:29:33;;;;;;;59.50;35.23;;;3.00;99.90;;;;;;5102924;28;20542;-71
2022/01/27 00:31:59;;;;;;;52.10;34.60;;;3.00;99.90;;;;;;5102809;28;20448;-71
2022/01/27 00:34:26;;;;;;;54.40;35.33;;;2.90;99.90;;;;;;5104054;28;20465;-70
2022/01/27 00:36:53;;;;;;;53.83;33.70;;;2.90;99.90;;;;;;5097428;28;20518;-69
2022/01/27 00:39:20;;;;;;;51.50;32.60;;;3.00;99.90;;;;;;5103252;28;20527;-69
2022/01/27 00:41:48;;;;;;;51.40;34.40;;;3.00;99.90;;;;;;5102567;28;20484;-69
2022/01/27 00:44:15;;;;;;;55.53;33.47;;;3.00;99.90;;;;;;5096241;28;20453;-69
2022/01/27 00:46:42;;;;;;;57.23;33.23;;;3.00;99.90;;;;;;5097872;28;20999;-68
2022/01/27 00:49:09;;;;;;;55.63;32.80;;;3.10;99.90;;;;;;5102975;28;20460;-69
2022/01/27 00:51:39;;;;;;;48.67;29.73;;;3.10;99.90;;;;;;5098180;28;20465;-69
2022/01/27 00:54:11;;;;;;;50.63;32.17;;;3.00;99.90;;;;;;5101989;28;20476;-69
2022/01/27 00:56:46;;;;;;;61.17;35.93;;;3.10;99.90;;;;;;5103456;28;20444;-69
2022/01/27 00:59:33;;;;;;;62.23;32.33;;;3.00;99.90;;;;;;5101270;28;21375;-69
2022/01/27 01:02:08;;;;;;;51.17;31.97;;;3.10;99.90;;;;;;5099564;28;20528;-69
2022/01/27 01:04:39;;;;;;;53.83;34.00;;;3.10;99.90;;;;;;5105491;28;20447;-70
2022/01/27 01:07:07;;;;;;;64.40;34.50;;;3.00;99.90;;;;;;5104982;28;20491;-69
2022/01/27 01:15:09;;;;;;;55.27;31.33;;;3.00;99.90;;;;;;5096346;28;20853;-69
2022/01/27 01:17:44;;;;;;;49.90;31.90;;;3.00;99.90;;;;;;5099536;28;20460;-69
2022/01/27 01:20:29;;;;;;;56.20;31.80;;;3.00;99.90;;;;;;5101721;28;20462;-69
2022/01/27 01:31:27;;;;;;;57.80;33.67;;;3.10;99.90;;;;;;5106909;27;20831;-69
2022/01/27 01:34:00;;;;;;;45.80;31.20;;;3.10;99.90;;;;;;5099085;28;20488;-70
2022/01/27 01:36:36;;;;;;;37.50;26.03;;;3.00;99.90;;;;;;5100207;28;20473;-70
2022/01/27 01:39:04;;;;;;;58.83;33.97;;;3.00;99.90;;;;;;5099963;28;20461;-69
2022/01/27 01:41:31;;;;;;;40.17;29.73;;;3.20;99.90;;;;;;5097545;28;20489;-69
2022/01/27 01:43:59;;;;;;;53.50;31.07;;;3.20;99.90;;;;;;5097781;28;20454;-68
2022/01/27 01:46:27;;;;;;;49.67;31.70;;;3.20;99.90;;;;;;5101201;28;20461;-69
2022/01/27 01:48:54;;;;;;;41.93;30.90;;;3.20;99.90;;;;;;5101926;28;20552;-71
2022/01/27 01:51:27;;;;;;;52.60;30.43;;;3.10;99.90;;;;;;5104204;28;21070;-72
2022/01/27 01:53:54;;;;;;;44.17;31.67;;;3.10;99.90;;;;;;5101701;28;21005;-69
2022/01/27 01:56:21;;;;;;;41.73;28.70;;;3.20;99.90;;;;;;5103667;28;20463;-72
2022/01/27 01:58:48;;;;;;;41.77;27.17;;;3.20;99.90;;;;;;5099167;28;20487;-70
2022/01/27 02:01:15;;;;;;;48.87;31.23;;;3.30;99.90;;;;;;5104304;28;20489;-71
2022/01/27 02:03:44;;;;;;;48.30;30.13;;;3.30;99.90;;;;;;5102968;28;20500;-70
2022/01/27 02:06:19;;;;;;;49.73;31.30;;;3.30;99.90;;;;;;5104465;28;20519;-70
2022/01/27 02:09:05;;;;;;;55.20;31.30;;;3.30;99.90;;;;;;5101127;28;20546;-70
2022/01/27 02:19:46;;;;;;;41.10;28.13;;;3.30;99.90;;;;;;5102140;28;20475;-70
2022/01/27 02:22:15;;;;;;;47.93;30.60;;;3.10;99.90;;;;;;5101718;28;20483;-71
2022/01/27 02:24:42;;;;;;;50.30;31.27;;;3.20;99.90;;;;;;5103545;28;21031;-69
2022/01/27 02:27:09;;;;;;;50.07;31.10;;;3.30;99.90;;;;;;5097195;28;20469;-69
2022/01/27 02:29:36;;;;;;;60.70;32.03;;;3.30;99.90;;;;;;5100256;27;20462;-71
2022/01/27 02:32:04;;;;;;;40.80;30.47;;;3.40;99.90;;;;;;5098687;27;20480;-70
2022/01/27 02:34:31;;;;;;;44.07;31.97;;;3.40;99.90;;;;;;5100835;28;20461;-73
2022/01/27 02:36:58;;;;;;;44.53;31.83;;;3.30;99.90;;;;;;5098103;28;21096;-71
2022/01/27 02:39:27;;;;;;;44.60;29.20;;;3.40;99.90;;;;;;5102559;28;20473;-72
2022/01/27 02:42:01;;;;;;;48.63;31.60;;;3.50;99.90;;;;;;5105470;28;20513;-69
2022/01/27 02:44:35;;;;;;;47.00;30.30;;;3.30;99.90;;;;;;5102322;28;20934;-70
2022/01/27 02:47:02;;;;;;;47.13;30.77;;;3.40;99.90;;;;;;5099076;28;20473;-71
2022/01/27 02:49:30;;;;;;;45.17;33.50;;;3.30;99.90;;;;;;5098904;28;21161;-72
2022/01/27 02:51:57;;;;;;;42.77;30.73;;;3.40;99.90;;;;;;5101746;28;20449;-72
2022/01/27 02:54:27;;;;;;;46.00;29.17;;;3.50;99.90;;;;;;5103371;28;20834;-69
2022/01/27 02:56:53;;;;;;;40.13;28.17;;;3.40;99.90;;;;;;5100284;28;20473;-72
2022/01/27 02:59:21;;;;;;;51.13;33.03;;;3.40;99.90;;;;;;5099453;28;20456;-71
2022/01/27 03:01:50;;;;;;;42.97;30.60;;;3.40;99.90;;;;;;5099674;28;20473;-71
2022/01/27 03:04:18;;;;;;;49.10;31.33;;;3.40;99.90;;;;;;5099535;28;20513;-69
2022/01/27 03:06:47;;;;;;;50.20;31.30;;;3.50;99.90;;;;;;5099688;28;20935;-72
2022/01/27 03:09:14;;;;;;;40.90;28.63;;;3.50;99.90;;;;;;5095704;28;20446;-71
2022/01/27 03:11:47;;;;;;;52.20;32.40;;;3.50;99.90;;;;;;5095985;28;20522;-69
2022/01/27 03:14:15;;;;;;;56.20;32.03;;;3.60;99.90;;;;;;5096369;28;20516;-70
2022/01/27 03:16:42;;;;;;;50.63;32.37;;;3.60;99.90;;;;;;5101391;28;20457;-71
2022/01/27 03:19:10;;;;;;;52.27;32.07;;;3.60;99.90;;;;;;5098060;28;20468;-69
2022/01/27 03:21:39;;;;;;;42.00;29.30;;;3.50;99.90;;;;;;5104061;28;20564;-71
2022/01/27 03:24:06;;;;;;;46.93;31.33;;;3.60;99.90;;;;;;5095901;28;20502;-72
2022/01/27 03:26:34;;;;;;;47.60;29.97;;;3.60;99.90;;;;;;5098712;28;20489;-72
2022/01/27 03:29:02;;;;;;;50.57;29.80;;;3.60;99.90;;;;;;5096660;28;20461;-70
2022/01/27 03:31:29;;;;;;;36.13;25.73;;;3.60;99.90;;;;;;5101157;27;20461;-70
2022/01/27 03:33:56;;;;;;;36.70;26.20;;;3.50;99.90;;;;;;5099601;28;20469;-70
2022/01/27 03:36:23;;;;;;;40.73;29.87;;;3.60;99.90;;;;;;5101633;28;20464;-71
2022/01/27 03:38:51;;;;;;;46.80;30.93;;;3.50;99.90;;;;;;5099573;28;20469;-70
2022/01/27 03:41:20;;;;;;;38.10;25.03;;;3.60;99.90;;;;;;5097781;28;20474;-71
2022/01/27 03:43:48;;;;;;;38.70;28.57;;;3.70;99.90;;;;;;5100175;28;20469;-69
2022/01/27 03:46:18;;;;;;;41.07;28.60;;;3.70;99.90;;;;;;5101561;28;20470;-73
2022/01/27 03:48:45;;;;;;;39.63;28.43;;;3.70;99.90;;;;;;5102713;28;20962;-69
2022/01/27 03:51:12;;;;;;;47.83;28.97;;;3.70;99.90;;;;;;5100159;28;21015;-73
2022/01/27 03:53:39;;;;;;;46.30;32.00;;;3.80;99.90;;;;;;5092932;28;20463;-71
2022/01/27 03:56:07;;;;;;;39.93;27.90;;;3.80;99.90;;;;;;5093780;28;20488;-69
2022/01/27 03:58:34;;;;;;;30.30;26.40;;;3.80;99.90;;;;;;5094635;28;20480;-70
2022/01/27 04:01:01;;;;;;;41.07;30.40;;;3.80;99.90;;;;;;5100022;28;20465;-69
2022/01/27 04:03:31;;;;;;;39.63;28.90;;;3.90;99.90;;;;;;5104159;28;20556;-71
2022/01/27 04:06:05;;;;;;;42.07;31.07;;;3.90;99.90;;;;;;5098001;28;20485;-70
2022/01/27 04:08:32;;;;;;;43.90;30.77;;;3.90;99.90;;;;;;5099035;28;20527;-69
2022/01/27 04:10:59;;;;;;;42.77;30.13;;;4.00;99.90;;;;;;5098459;28;20504;-71
2022/01/27 04:13:26;;;;;;;36.17;30.03;;;4.00;99.90;;;;;;5097391;28;20485;-69
2022/01/27 04:15:53;;;;;;;42.20;29.80;;;4.10;99.90;;;;;;5102656;28;20461;-72
2022/01/27 04:18:19;;;;;;;40.80;30.93;;;4.10;99.90;;;;;;5100993;28;20457;-69
2022/01/27 04:20:48;;;;;;;42.80;30.30;;;4.10;99.90;;;;;;5095672;28;20449;-71
2022/01/27 04:23:14;;;;;;;37.30;29.80;;;4.10;99.90;;;;;;5100640;28;20491;-70
2022/01/27 04:25:41;;;;;;;43.60;31.00;;;4.10;99.90;;;;;;5098476;28;21167;-71
2022/01/27 04:28:12;;;;;;;43.13;29.50;;;4.20;99.90;;;;;;5103785;28;20460;-70
2022/01/27 04:30:39;;;;;;;41.50;29.97;;;4.30;99.90;;;;;;5097606;28;20456;-70
2022/01/27 04:33:07;;;;;;;36.00;27.90;;;4.20;99.90;;;;;;5101704;28;20931;-69
2022/01/27 04:35:38;;;;;;;52.13;31.07;;;4.20;99.90;;;;;;5100042;28;20508;-71
2022/01/27 04:38:18;;;;;;;40.73;31.90;;;4.30;99.90;;;;;;5097817;28;21190;-69
2022/01/27 04:40:53;;;;;;;38.17;29.73;;;4.40;99.90;;;;;;5104104;28;20449;-70
2022/01/27 04:43:28;;;;;;;42.63;31.00;;;4.30;99.90;;;;;;5103084;28;20473;-70
2022/01/27 04:46:03;;;;;;;41.70;30.30;;;4.30;99.90;;;;;;5097778;28;20457;-72
2022/01/27 04:48:36;;;;;;;41.10;30.47;;;4.40;99.90;;;;;;5097975;28;20461;-68
2022/01/27 04:51:07;;;;;;;32.10;28.60;;;4.20;99.90;;;;;;5101173;28;20568;-71
2022/01/27 04:53:39;;;;;;;40.20;30.20;;;4.40;99.90;;;;;;5096312;28;20458;-70
2022/01/27 04:56:10;;;;;;;30.30;23.47;;;4.40;99.90;;;;;;5098431;28;20994;-69
2022/01/27 04:58:38;;;;;;;38.80;30.60;;;4.40;99.90;;;;;;5091906;28;20484;-70
2022/01/27 05:01:05;;;;;;;36.60;28.93;;;4.50;99.90;;;;;;5069368;28;20870;-70
2022/01/27 05:03:39;;;;;;;39.67;29.83;;;4.50;99.90;;;;;;5069488;28;20597;-71
2022/01/27 05:06:06;;;;;;;40.30;29.50;;;4.50;99.90;;;;;;5068323;28;20482;-68
2022/01/27 05:08:34;;;;;;;38.23;28.47;;;4.60;99.90;;;;;;5069532;28;20461;-70
2022/01/27 05:11:06;;;;;;;31.73;26.40;;;4.60;99.90;;;;;;5069583;28;20795;-69
2022/01/27 05:13:39;;;;;;;36.77;27.83;;;4.50;99.90;;;;;;5070331;28;20583;-69
2022/01/27 05:16:07;;;;;;;37.03;28.60;;;4.60;99.90;;;;;;5068111;28;20469;-71
2022/01/27 05:18:34;;;;;;;37.67;28.70;;;4.60;99.90;;;;;;5071582;28;20465;-69
2022/01/27 05:21:01;;;;;;;42.87;30.47;;;4.60;99.90;;;;;;5071296;28;21031;-71
2022/01/27 05:23:28;;;;;;;37.00;28.10;;;4.60;99.90;;;;;;5071267;28;20481;-72
2022/01/27 05:25:56;;;;;;;33.43;27.57;;;4.70;99.90;;;;;;5071666;28;20715;-69
2022/01/27 05:28:23;;;;;;;35.97;29.10;;;4.70;99.90;;;;;;5068135;28;20450;-72
2022/01/27 05:30:50;;;;;;;45.47;29.70;;;4.60;99.90;;;;;;5068014;27;20836;-72
2022/01/27 05:33:17;;;;;;;43.90;31.17;;;4.70;99.90;;;;;;5071184;28;20474;-68
2022/01/27 05:35:45;;;;;;;39.30;28.33;;;4.70;99.90;;;;;;5071315;28;21197;-71
2022/01/27 05:38:13;;;;;;;34.53;27.50;;;4.80;99.90;;;;;;5077029;28;21030;-71
2022/01/27 05:40:40;;;;;;;32.57;25.80;;;4.80;99.90;;;;;;5069104;28;20454;-73
2022/01/27 05:43:09;;;;;;;35.47;27.33;;;4.80;99.90;;;;;;5065508;28;21208;-72
2022/01/27 05:45:36;;;;;;;42.63;28.93;;;4.90;99.90;;;;;;5063717;28;20486;-70
2022/01/27 05:48:04;;;;;;;44.57;29.23;;;4.90;99.90;;;;;;5064142;28;20457;-69
2022/01/27 05:50:32;;;;;;;27.30;24.50;;;4.90;99.90;;;;;;5066706;28;20588;-69
2022/01/27 05:52:59;;;;;;;35.90;27.53;;;5.00;99.90;;;;;;5065819;28;20446;-69
2022/01/27 05:55:26;;;;;;;39.97;27.33;;;5.00;99.90;;;;;;5065748;28;20454;-72
2022/01/27 05:57:53;;;;;;;36.07;26.00;;;5.00;99.90;;;;;;5066734;28;20499;-72
2022/01/27 06:00:21;;;;;;;36.27;27.33;;;5.00;99.90;;;;;;5065725;28;20462;-69
2022/01/27 06:02:48;;;;;;;33.73;25.40;;;5.00;99.90;;;;;;5066294;28;20497;-70
2022/01/27 06:05:15;;;;;;;48.40;27.40;;;5.00;99.90;;;;;;5065421;28;20474;-68
2022/01/27 06:07:42;;;;;;;39.63;29.07;;;5.00;99.90;;;;;;5064821;28;21240;-71
2022/01/27 06:10:09;;;;;;;32.23;28.20;;;5.00;99.90;;;;;;5065722;28;20462;-70
2022/01/27 06:12:48;;;;;;;37.37;28.17;;;5.10;99.90;;;;;;5065059;28;20461;-72
2022/01/27 06:15:16;;;;;;;41.37;28.70;;;5.00;99.90;;;;;;5063102;28;20466;-72
2022/01/27 06:17:44;;;;;;;33.50;27.23;;;5.00;99.90;;;;;;5065230;28;20546;-69
2022/01/27 06:20:12;;;;;;;35.30;28.60;;;5.10;99.90;;;;;;5065534;28;20469;-71
2022/01/27 06:22:39;;;;;;;36.50;29.03;;;5.10;99.90;;;;;;5065398;28;20490;-72
2022/01/27 06:25:08;;;;;;;40.13;29.90;;;5.10;99.90;;;;;;5065194;28;20462;-70
2022/01/27 06:27:35;;;;;;;41.63;29.60;;;5.20;99.90;;;;;;5065454;28;20829;-71
2022/01/27 06:30:04;;;;;;;32.40;25.13;;;5.20;99.90;;;;;;5064902;28;20472;-71
2022/01/27 06:32:31;;;;;;;33.27;26.03;;;5.10;99.90;;;;;;5066205;27;20462;-68
2022/01/27 06:35:00;;;;;;;30.20;27.07;;;5.10;99.90;;;;;;5063346;28;20458;-69
2022/01/27 06:37:27;;;;;;;37.27;27.17;;;5.20;99.90;;;;;;5098407;28;20475;-71
2022/01/27 06:39:54;;;;;;;32.97;24.67;;;5.20;99.90;;;;;;5094265;28;20460;-72
2022/01/27 06:42:20;;;;;;;33.60;28.57;;;5.10;99.90;;;;;;5067189;28;20504;-70
2022/01/27 06:44:47;;;;;;;42.27;29.43;;;5.30;99.90;;;;;;5064543;28;20481;-72
2022/01/27 06:47:15;;;;;;;36.83;26.03;;;5.30;99.90;;;;;;5062787;28;20454;-69
2022/01/27 06:49:42;;;;;;;35.00;28.50;;;5.20;99.90;;;;;;5063657;28;20454;-71
2022/01/27 06:52:10;;;;;;;37.13;29.93;;;5.10;99.90;;;;;;5062997;28;20495;-69
2022/01/27 06:54:37;;;;;;;38.67;30.63;;;5.10;99.90;;;;;;5062789;28;20935;-69
2022/01/27 06:57:05;;;;;;;27.50;24.57;;;5.00;99.90;;;;;;5063993;28;20449;-71
2022/01/27 06:59:32;;;;;;;41.47;29.10;;;5.00;99.90;;;;;;5062890;28;20559;-70
2022/01/27 07:01:59;;;;;;;35.93;28.50;;;5.00;99.90;;;;;;5062993;28;20466;-69
2022/01/27 07:04:26;;;;;;;39.90;29.27;;;5.00;99.90;;;;;;5064394;28;20498;-71
2022/01/27 07:06:53;;;;;;;41.23;28.97;;;5.00;99.90;;;;;;5062241;28;20577;-69
2022/01/27 07:09:21;;;;;;;35.40;29.57;;;5.10;99.90;;;;;;5062708;28;20477;-69
2022/01/27 07:11:48;;;;;;;37.00;27.13;;;5.10;99.90;;;;;;5063780;28;20462;-72
2022/01/27 07:14:14;;;;;;;37.07;28.83;;;5.20;99.90;;;;;;5063463;28;20537;-71
2022/01/27 07:16:42;;;;;;;42.33;29.00;;;5.30;99.90;;;;;;5062203;28;20469;-69
2022/01/27 07:19:09;;;;;;;37.67;28.23;;;5.30;99.90;;;;;;5063178;28;20557;-71
2022/01/27 07:21:36;;;;;;;38.43;29.00;;;5.30;99.90;;;;;;5063012;28;20453;-70
2022/01/27 07:24:03;;;;;;;43.80;30.80;;;5.40;99.90;;;;;;5062723;28;20497;-71
2022/01/27 07:26:31;;;;;;;51.87;30.83;;;5.40;99.90;;;;;;5061397;28;21139;-73
2022/01/27 07:28:58;;;;;;;41.30;30.50;;;5.50;99.90;;;;;;5063545;28;20535;-72
2022/01/27 07:31:25;;;;;;;40.23;29.67;;;5.50;99.90;;;;;;5063182;28;20561;-70
2022/01/27 07:33:53;;;;;;;46.90;29.00;;;5.50;99.90;;;;;;5064289;28;20986;-71
2022/01/27 07:36:35;;;;;;;34.53;29.10;;;5.50;99.90;;;;;;5061473;28;20752;-70
2022/01/27 07:39:03;;;;;;;38.70;29.40;;;5.50;99.90;;;;;;5086175;28;20473;-68
2022/01/27 07:41:31;;;;;;;26.93;23.80;;;5.60;99.90;;;;;;5072206;28;20465;-68
2022/01/27 07:43:58;;;;;;;43.90;30.57;;;5.60;99.90;;;;;;5064836;28;20477;-70
2022/01/27 07:46:25;;;;;;;35.67;28.50;;;5.60;99.90;;;;;;5064947;28;21112;-70
2022/01/27 07:48:51;;;;;;;39.70;30.60;;;5.60;99.90;;;;;;5062715;28;20833;-68
2022/01/27 07:51:18;;;;;;;40.37;29.73;;;5.60;99.90;;;;;;5064047;28;20466;-70
2022/01/27 07:53:45;;;;;;;36.03;28.77;;;5.70;99.90;;;;;;5064276;28;21124;-68
2022/01/27 07:56:12;;;;;;;42.37;30.67;;;5.70;99.90;;;;;;5076279;28;20466;-71
2022/01/27 07:58:40;;;;;;;42.00;31.97;;;5.80;99.90;;;;;;5073199;28;20462;-71
2022/01/27 08:01:08;;;;;;;42.80;28.70;;;5.80;99.90;;;;;;5064177;28;20586;-69
2022/01/27 08:03:35;;;;;;;33.03;28.13;;;5.80;99.90;;;;;;5064833;28;20517;-69
2022/01/27 08:06:02;;;;;;;36.33;29.03;;;5.80;99.90;;;;;;5065452;28;20482;-69
2022/01/27 08:08:29;;;;;;;48.90;30.57;;;5.70;99.90;;;;;;5064952;28;21272;-73
2022/01/27 08:10:55;;;;;;;39.43;28.67;;;5.70;99.90;;;;;;5071656;28;21740;-74
2022/01/27 08:13:22;;;;;;;47.33;28.40;;;5.70;99.90;;;;;;5089392;28;20488;-70
2022/01/27 08:15:50;;;;;;;40.40;29.37;;;5.70;99.90;;;;;;5085819;28;20457;-70
2022/01/27 08:18:17;;;;;;;43.30;27.97;;;5.70;99.90;;;;;;5080210;28;20809;-71
2022/01/27 08:20:46;;;;;;;45.73;29.93;;;5.70;99.90;;;;;;5065070;28;20469;-71
2022/01/27 08:23:14;;;;;;;50.00;34.03;;;5.60;99.90;;;;;;5064904;28;20542;-71
2022/01/27 08:25:41;;;;;;;48.73;32.07;;;5.50;99.90;;;;;;5064367;28;20548;-72
2022/01/27 08:28:19;;;;;;;40.47;29.30;;;5.50;99.90;;;;;;5064402;28;21148;-71
2022/01/27 08:30:49;;;;;;;45.60;32.70;;;5.40;99.90;;;;;;5064092;28;20454;-70
2022/01/27 08:33:19;;;;;;;39.43;30.40;;;5.30;99.90;;;;;;5063939;28;20470;-72
2022/01/27 08:35:45;;;;;;;55.60;38.43;;;5.20;99.90;;;;;;5064984;28;20454;-71
2022/01/27 08:38:12;;;;;;;53.80;38.13;;;5.20;99.90;;;;;;5066023;28;20815;-71
2022/01/27 08:40:40;;;;;;;51.17;37.63;;;5.20;99.90;;;;;;5068072;28;20473;-71
2022/01/27 08:43:08;;;;;;;59.53;40.10;;;5.20;99.90;;;;;;5067254;28;20490;-73
2022/01/27 08:45:38;;;;;;;45.67;36.30;;;5.10;99.90;;;;;;5068552;28;21603;-73
2022/01/27 08:48:05;;;;;;;59.17;39.63;;;5.10;99.90;;;;;;5068352;28;20460;-72
2022/01/27 08:50:35;;;;;;;55.10;38.37;;;5.00;99.90;;;;;;5067243;28;21288;-71
2022/01/27 08:53:02;;;;;;;52.10;35.67;;;5.00;99.90;;;;;;5068383;28;20469;-74
2022/01/27 08:55:28;;;;;;;59.23;41.80;;;5.10;99.90;;;;;;5067767;28;20827;-72
2022/01/27 08:57:55;;;;;;;58.60;38.70;;;5.10;99.90;;;;;;5066634;28;21813;-72
2022/01/27 09:00:23;;;;;;;41.87;33.37;;;5.00;99.90;;;;;;5066634;28;20559;-72
2022/01/27 09:02:49;;;;;;;66.23;44.83;;;5.00;99.90;;;;;;5068552;28;20472;-74
2022/01/27 09:05:16;;;;;;;57.57;38.60;;;5.00;99.90;;;;;;5067264;28;20480;-72
2022/01/27 09:07:44;;;;;;;56.83;37.33;;;5.00;99.90;;;;;;5067842;28;21099;-72
2022/01/27 09:10:11;;;;;;;72.03;43.23;;;5.00;99.90;;;;;;5066723;28;20462;-73
2022/01/27 09:12:38;;;;;;;70.77;44.60;;;5.10;99.90;;;;;;5066512;28;20826;-73
2022/01/27 09:15:06;;;;;;;55.67;40.10;;;5.20;99.90;;;;;;5068672;28;20499;-72
2022/01/27 09:17:39;;;;;;;64.67;44.93;;;5.10;99.90;;;;;;5067728;28;20469;-72
2022/01/27 09:20:09;;;;;;;66.17;45.70;;;5.20;99.90;;;;;;5067968;28;20583;-72
2022/01/27 09:22:36;;;;;;;59.63;45.30;;;5.20;99.90;;;;;;5067403;28;20904;-72
2022/01/27 09:25:12;;;;;;;74.67;45.30;;;5.20;99.90;;;;;;5066656;28;20943;-73
2022/01/27 09:27:42;;;;;;;62.27;45.97;;;5.20;99.90;;;;;;5090866;28;20461;-71
2022/01/27 09:30:11;;;;;;;69.93;50.43;;;5.10;99.90;;;;;;5095022;28;20464;-72
2022/01/27 09:32:38;;;;;;;54.00;44.50;;;5.20;99.90;;;;;;5067805;28;20457;-72
2022/01/27 09:35:05;;;;;;;71.43;51.07;;;5.20;99.90;;;;;;5065974;28;20481;-73
2022/01/27 09:37:32;;;;;;;62.27;46.53;;;5.20;99.90;;;;;;5066821;28;20935;-72
2022/01/27 09:39:59;;;;;;;67.93;51.30;;;5.20;99.90;;;;;;5067142;28;20845;-74
2022/01/27 09:42:30;;;;;;;55.60;46.37;;;5.20;99.90;;;;;;5066350;28;20917;-73
2022/01/27 09:45:02;;;;;;;63.77;51.13;;;5.10;99.90;;;;;;5067224;28;21434;-72
2022/01/27 09:47:31;;;;;;;66.90;49.00;;;5.20;99.90;;;;;;5067691;28;20575;-73
2022/01/27 09:50:08;;;;;;;52.47;47.10;;;5.20;99.90;;;;;;5065913;28;21380;-73
2022/01/27 09:52:35;;;;;;;62.20;50.13;;;5.30;99.90;;;;;;5067857;28;20470;-72
2022/01/27 09:55:02;;;;;;;68.63;48.97;;;5.30;99.90;;;;;;5067597;28;20639;-73
2022/01/27 09:57:31;;;;;;;54.93;47.20;;;5.30;99.90;;;;;;5067370;28;20470;-72
2022/01/27 09:59:58;;;;;;;48.43;43.20;;;5.40;99.90;;;;;;5075021;28;20473;-72
2022/01/27 10:02:26;;;;;;;50.23;45.03;;;5.40;99.90;;;;;;5097074;28;20833;-74
2022/01/27 10:04:57;;;;;;;61.47;49.43;;;5.50;99.90;;;;;;5093326;28;20490;-73
2022/01/27 10:07:27;;;;;;;60.70;45.83;;;5.50;99.90;;;;;;5067664;28;20573;-73
2022/01/27 10:09:59;;;;;;;64.17;45.87;;;5.60;99.90;;;;;;5067182;28;20505;-75
2022/01/27 10:12:28;;;;;;;62.47;47.73;;;5.60;99.90;;;;;;5067320;28;20679;-74
2022/01/27 10:15:03;;;;;;;64.70;51.83;;;5.60;99.90;;;;;;5067516;28;20544;-74
2022/01/27 10:17:33;;;;;;;60.70;47.40;;;5.70;99.90;;;;;;5065086;28;20540;-73
2022/01/27 10:20:00;;;;;;;58.77;46.63;;;5.70;99.90;;;;;;5064919;28;20515;-74
2022/01/27 10:22:27;;;;;;;58.80;47.20;;;5.70;99.90;;;;;;5065248;28;20473;-74
2022/01/27 10:25:03;;;;;;;53.30;43.57;;;5.70;99.90;;;;;;5065049;28;20489;-74
2022/01/27 10:27:34;;;;;;;48.17;40.77;;;5.80;99.90;;;;;;5064526;28;20825;-74
2022/01/27 10:32:47;;;;;;;57.13;44.03;;;5.80;99.90;;;;;;5051024;28;20461;-74
2022/01/27 10:35:16;;;;;;;43.40;38.77;;;5.80;99.90;;;;;;5064786;28;21311;-74
2022/01/27 10:37:58;;;;;;;58.90;44.60;;;5.70;99.90;;;;;;5063423;28;20472;-73
2022/01/27 10:40:28;;;;;;;59.40;43.63;;;5.70;99.90;;;;;;5064843;28;20477;-74
2022/01/27 10:43:13;;;;;;;69.23;44.77;;;5.90;99.90;;;;;;5064316;28;20839;-73
2022/01/27 10:46:00;;;;;;;55.37;46.23;;;5.80;99.90;;;;;;5059895;28;20830;-73
2022/01/27 10:48:30;;;;;;;64.30;45.20;;;5.90;99.90;;;;;;5062942;28;20472;-73
2022/01/27 10:51:03;;;;;;;62.77;45.27;;;5.80;99.90;;;;;;5062364;28;20980;-73
2022/01/27 10:53:55;;;;;;;52.53;44.50;;;5.90;99.90;;;;;;5063672;28;20936;-72
2022/01/27 10:56:24;;;;;;;54.83;46.10;;;5.80;99.90;;;;;;5063254;28;20465;-73
2022/01/27 10:58:51;;;;;;;65.33;48.17;;;5.80;99.90;;;;;;5062346;28;21333;-73
2022/01/27 11:01:31;;;;;;;49.47;42.73;;;5.90;99.90;;;;;;5062131;28;20470;-73
2022/01/27 11:04:00;;;;;;;55.83;44.70;;;6.00;99.90;;;;;;5063759;28;20870;-72
2022/01/27 11:06:28;;;;;;;60.97;46.67;;;6.00;99.90;;;;;;5062853;28;20482;-72
2022/01/27 11:08:58;;;;;;;59.63;44.80;;;6.10;99.90;;;;;;5063171;28;20524;-73
2022/01/27 11:11:26;;;;;;;55.87;46.53;;;6.00;99.90;;;;;;5064119;28;20476;-73
2022/01/27 11:13:54;;;;;;;49.77;44.43;;;6.10;99.90;;;;;;5057524;28;20911;-72
2022/01/27 11:16:28;;;;;;;54.47;46.77;;;6.20;99.90;;;;;;5063370;28;20973;-72
2022/01/27 11:19:11;;;;;;;57.60;48.10;;;6.10;99.90;;;;;;5063095;28;21205;-72
2022/01/27 11:21:40;;;;;;;49.90;44.43;;;6.20;99.90;;;;;;5062502;28;21084;-73
2022/01/27 11:24:15;;;;;;;54.87;44.70;;;6.10;99.90;;;;;;5064157;28;20515;-72
2022/01/27 11:26:45;;;;;;;55.63;44.13;;;6.10;99.90;;;;;;5063137;28;20474;-72
2022/01/27 11:29:14;;;;;;;53.43;46.80;;;6.20;99.90;;;;;;5055741;28;20471;-72
2022/01/27 11:31:53;;;;;;;64.53;45.37;;;6.20;99.90;;;;;;5061495;28;20481;-73
2022/01/27 11:34:21;;;;;;;56.63;42.93;;;6.20;99.90;;;;;;5063244;28;20458;-71
2022/01/27 11:37:02;;;;;;;47.93;42.83;;;6.20;99.90;;;;;;5065100;28;20455;-73
2022/01/27 11:39:50;;;;;;;46.03;41.10;;;6.20;99.90;;;;;;5064908;28;20889;-71
2022/01/27 11:42:21;;;;;;;47.23;41.47;;;6.30;99.90;;;;;;5065150;28;20486;-72
2022/01/27 11:44:49;;;;;;;49.83;44.63;;;6.20;99.90;;;;;;5066177;28;20504;-72
2022/01/27 11:47:18;;;;;;;53.13;47.63;;;6.40;99.90;;;;;;5096279;28;20505;-72
2022/01/27 11:50:01;;;;;;;50.20;44.93;;;6.30;99.90;;;;;;5064791;28;20835;-72
2022/01/27 11:52:30;;;;;;;46.80;42.00;;;6.30;99.90;;;;;;5063504;28;20462;-73
2022/01/27 11:54:59;;;;;;;47.30;42.30;;;6.30;99.90;;;;;;5062234;28;20926;-73
2022/01/27 11:57:43;;;;;;;44.30;39.73;;;6.30;99.90;;;;;;5062855;28;22510;-73
2022/01/27 12:00:13;;;;;;;45.10;40.73;;;6.20;99.90;;;;;;5061871;28;22385;-73
2022/01/27 12:03:08;;;;;;;48.97;42.53;;;6.30;99.90;;;;;;5063106;28;20465;-71
2022/01/27 12:05:39;;;;;;;38.90;35.20;;;6.20;99.90;;;;;;5063867;28;20501;-71
2022/01/27 12:08:26;;;;;;;50.30;44.80;;;6.20;99.90;;;;;;5063805;28;20661;-72
2022/01/27 12:10:57;;;;;;;42.70;38.53;;;6.30;99.90;;;;;;5057851;28;20455;-71
2022/01/27 12:14:01;;;;;;;44.57;40.43;;;6.20;99.90;;;;;;5066039;28;20466;-71
2022/01/27 12:16:53;;;;;;;48.00;42.07;;;6.20;99.90;;;;;;5066382;28;21168;-71
2022/01/27 12:19:20;;;;;;;38.80;35.40;;;6.30;99.90;;;;;;5064592;28;21113;-73
2022/01/27 12:22:00;;;;;;;42.13;37.87;;;6.20;99.90;;;;;;5066837;28;20481;-73
2022/01/27 12:24:29;;;;;;;42.67;37.97;;;6.30;99.90;;;;;;5066839;28;20613;-73
2022/01/27 12:26:58;;;;;;;45.07;40.37;;;6.30;99.90;;;;;;5066542;28;20545;-73
2022/01/27 12:29:27;;;;;;;44.30;38.50;;;6.30;99.90;;;;;;5066628;28;20470;-73
2022/01/27 12:31:55;;;;;;;44.27;39.13;;;6.30;99.90;;;;;;5067058;28;21598;-72
2022/01/27 12:34:23;;;;;;;49.50;41.93;;;6.40;99.90;;;;;;5067419;28;21085;-71
2022/01/27 12:37:01;;;;;;;44.73;40.03;;;6.40;99.90;;;;;;5067275;28;20481;-72
2022/01/27 12:39:30;;;;;;;44.10;39.20;;;6.40;99.90;;;;;;5066410;28;20460;-72
2022/01/27 12:42:00;;;;;;;47.07;41.23;;;6.40;99.90;;;;;;5066930;28;20455;-72
2022/01/27 12:44:28;;;;;;;46.87;41.37;;;6.50;99.90;;;;;;5066574;28;20531;-72
2022/01/27 12:47:06;;;;;;;44.73;40.13;;;6.50;99.90;;;;;;5062571;28;20473;-72
2022/01/27 12:49:47;;;;;;;39.77;35.80;;;6.50;99.90;;;;;;5066252;27;20466;-71
2022/01/27 12:52:19;;;;;;;44.70;40.07;;;6.40;99.90;;;;;;5068186;28;20456;-72
2022/01/27 12:54:50;;;;;;;40.90;37.30;;;6.50;99.90;;;;;;5090768;28;20480;-73
2022/01/27 12:57:25;;;;;;;46.37;41.73;;;6.60;99.90;;;;;;5090860;28;20468;-72
2022/01/27 12:59:54;;;;;;;44.03;39.73;;;6.60;99.90;;;;;;5096111;28;20459;-74
2022/01/27 13:02:23;;;;;;;43.83;39.63;;;6.60;99.90;;;;;;5088128;28;20664;-74
2022/01/27 13:04:53;;;;;;;42.13;37.77;;;6.60;99.90;;;;;;5065137;28;20575;-73
2022/01/27 13:07:22;;;;;;;44.40;40.17;;;6.60;99.90;;;;;;5065610;28;20489;-73
2022/01/27 13:09:57;;;;;;;39.70;36.10;;;6.70;99.90;;;;;;5065311;28;20474;-74
2022/01/27 13:12:29;;;;;;;39.47;35.60;;;6.60;99.90;;;;;;5064317;28;21146;-73
2022/01/27 13:15:04;;;;;;;43.43;38.80;;;6.70;99.90;;;;;;5064779;28;20635;-73